createdAt,value
2023-05-09T00:02:26.230Z,43.42
2023-05-09T00:04:54.345Z,43.50
2023-05-09T00:07:23.050Z,43.73
2023-05-09T00:09:51.595Z,44.12
2023-05-09T00:12:20.183Z,44.08
2023-05-09T00:14:52.043Z,43.91
2023-05-09T00:17:27.267Z,44.09
2023-05-09T00:19:55.937Z,44.29
2023-05-09T00:22:24.056Z,44.16
2023-05-09T00:24:52.293Z,44.04
2023-05-09T00:27:20.203Z,44.05
2023-05-09T00:29:48.315Z,43.71
2023-05-09T00:32:16.410Z,43.77
2023-05-09T00:34:45.845Z,44.28
2023-05-09T00:37:14.154Z,44.66
2023-05-09T00:39:42.654Z,44.38
2023-05-09T00:42:14.226Z,44.61
2023-05-09T00:44:47.918Z,44.43
2023-05-09T00:47:16.109Z,44.25
2023-05-09T00:49:44.389Z,44.42
2023-05-09T00:52:12.649Z,44.45
2023-05-09T00:54:40.973Z,44.47
2023-05-09T00:57:09.586Z,44.37
2023-05-09T00:59:39.730Z,44.82
2023-05-09T01:02:08.048Z,44.79
2023-05-09T01:04:36.332Z,44.55
2023-05-09T01:07:10.079Z,44.75
2023-05-09T01:09:56.478Z,44.81
2023-05-09T01:12:48.987Z,44.73
2023-05-09T01:15:32.616Z,45.02
2023-05-09T01:18:16.959Z,45.34
2023-05-09T01:20:54.316Z,44.81
2023-05-09T01:23:46.552Z,44.79
2023-05-09T01:26:20.481Z,44.93
2023-05-09T01:29:08.697Z,44.80
2023-05-09T01:31:39.350Z,45.19
2023-05-09T01:34:09.017Z,44.82
2023-05-09T01:36:38.923Z,44.85
2023-05-09T01:39:08.101Z,44.78
2023-05-09T01:41:38.242Z,44.95
2023-05-09T01:44:12.077Z,45.05
2023-05-09T01:46:41.000Z,45.27
2023-05-09T01:49:10.061Z,45.33
2023-05-09T01:51:43.702Z,45.04
2023-05-09T01:54:12.847Z,44.57
2023-05-09T01:56:42.833Z,45.44
2023-05-09T01:59:16.361Z,45.29
2023-05-09T02:01:47.533Z,44.89
2023-05-09T02:04:16.836Z,45.72
2023-05-09T02:06:45.053Z,45.24
2023-05-09T02:09:13.513Z,45.33
2023-05-09T02:11:41.782Z,45.18
2023-05-09T02:14:10.332Z,44.91
2023-05-09T02:16:39.929Z,45.07
2023-05-09T02:19:08.318Z,44.95
2023-05-09T02:21:36.784Z,45.11
2023-05-09T02:24:05.355Z,44.70
2023-05-09T02:26:34.147Z,44.50
2023-05-09T02:29:04.350Z,44.77
2023-05-09T02:31:34.670Z,44.80
2023-05-09T02:34:04.966Z,45.20
2023-05-09T02:36:33.795Z,45.41
2023-05-09T02:39:04.632Z,45.29
2023-05-09T02:41:33.245Z,44.95
2023-05-09T02:44:01.251Z,44.94
2023-05-09T02:46:30.054Z,44.50
2023-05-09T02:48:58.350Z,44.66
2023-05-09T02:51:26.553Z,44.61
2023-05-09T02:53:54.453Z,44.43
2023-05-09T02:56:22.627Z,44.30
2023-05-09T02:58:51.700Z,44.66
2023-05-09T03:01:20.112Z,44.74
2023-05-09T03:03:48.761Z,44.84
2023-05-09T03:06:17.157Z,45.04
2023-05-09T03:08:45.442Z,45.20
2023-05-09T03:11:13.755Z,45.52
2023-05-09T03:13:42.134Z,44.88
2023-05-09T03:16:14.086Z,44.52
2023-05-09T03:18:43.152Z,44.26
2023-05-09T03:21:11.479Z,44.42
2023-05-09T03:23:40.316Z,44.33
2023-05-09T03:26:08.523Z,44.13
2023-05-09T03:28:36.496Z,43.61
2023-05-09T03:31:05.327Z,43.17
2023-05-09T03:33:33.869Z,42.56
2023-05-09T03:36:02.207Z,42.50
2023-05-09T03:38:30.444Z,42.47
2023-05-09T03:40:58.638Z,41.89
2023-05-09T03:43:26.972Z,41.51
2023-05-09T03:45:56.462Z,41.48
2023-05-09T03:48:24.657Z,41.10
2023-05-09T03:50:52.927Z,40.90
2023-05-09T03:53:22.870Z,40.56
2023-05-09T03:55:51.164Z,40.61
2023-05-09T03:58:22.276Z,40.57
2023-05-09T04:00:51.386Z,40.35
2023-05-09T04:03:19.516Z,40.32
2023-05-09T04:05:48.347Z,40.31
2023-05-09T04:08:18.569Z,40.11
2023-05-09T04:10:51.024Z,40.07
2023-05-09T04:13:23.413Z,39.63
2023-05-09T04:15:52.402Z,39.61
2023-05-09T04:18:20.688Z,40.08
2023-05-09T04:20:48.756Z,40.27
2023-05-09T04:23:17.097Z,40.50
2023-05-09T04:25:45.363Z,40.46
2023-05-09T04:28:13.481Z,40.94
2023-05-09T04:30:42.013Z,40.85
2023-05-09T04:33:10.198Z,41.00
2023-05-09T04:35:38.992Z,40.82
2023-05-09T04:38:06.939Z,40.55
2023-05-09T04:40:35.176Z,40.33
2023-05-09T04:43:04.250Z,40.44
2023-05-09T04:45:35.216Z,40.06
2023-05-09T04:48:04.404Z,40.28
2023-05-09T04:50:32.760Z,40.19
2023-05-09T04:53:00.817Z,40.26
2023-05-09T04:55:29.427Z,40.49
2023-05-09T04:57:57.598Z,39.93
2023-05-09T05:00:28.598Z,40.16
2023-05-09T05:02:56.821Z,39.87
2023-05-09T05:05:35.996Z,39.73
2023-05-09T05:08:05.672Z,39.86
2023-05-09T05:10:34.402Z,39.35
2023-05-09T05:13:03.054Z,38.94
2023-05-09T05:15:31.248Z,38.66
2023-05-09T05:17:59.631Z,38.78
2023-05-09T05:20:27.996Z,39.08
2023-05-09T05:22:56.335Z,38.93
2023-05-09T05:25:25.797Z,39.46
2023-05-09T05:27:53.785Z,39.54
2023-05-09T05:30:21.881Z,39.94
2023-05-09T05:32:49.997Z,40.07
2023-05-09T05:35:18.435Z,39.53
2023-05-09T05:37:48.956Z,38.93
2023-05-09T05:40:17.369Z,38.84
2023-05-09T05:42:46.958Z,38.56
2023-05-09T05:45:15.540Z,38.25
2023-05-09T05:47:44.602Z,37.32
2023-05-09T05:50:13.605Z,36.50
2023-05-09T05:52:42.405Z,35.50
2023-05-09T05:55:11.062Z,35.17
2023-05-09T05:57:39.718Z,34.97
2023-05-09T06:00:12.212Z,34.85
2023-05-09T06:02:44.948Z,34.20
2023-05-09T06:05:13.268Z,33.82
2023-05-09T06:07:44.505Z,33.91
2023-05-09T06:10:12.529Z,33.31
2023-05-09T06:12:42.311Z,33.30
2023-05-09T06:15:10.925Z,33.43
2023-05-09T06:17:40.713Z,32.74
2023-05-09T06:20:09.409Z,32.87
2023-05-09T06:22:43.572Z,32.49
2023-05-09T06:25:12.719Z,32.90
2023-05-09T06:27:41.222Z,32.44
2023-05-09T06:30:23.895Z,32.55
2023-05-09T06:32:53.588Z,31.57
2023-05-09T06:35:22.215Z,30.20
2023-05-09T06:37:51.073Z,29.53
2023-05-09T06:40:19.415Z,29.10
2023-05-09T06:42:47.929Z,28.25
2023-05-09T06:45:16.629Z,28.51
2023-05-09T06:47:45.749Z,29.40
2023-05-09T06:50:16.781Z,29.19
2023-05-09T06:52:44.806Z,28.84
2023-05-09T06:55:13.045Z,28.97
2023-05-09T06:57:41.533Z,28.49
2023-05-09T07:00:10.298Z,28.26
2023-05-09T07:02:42.652Z,28.76
2023-05-09T07:05:11.332Z,29.47
2023-05-09T07:07:41.484Z,29.33
2023-05-09T07:10:12.294Z,29.51
2023-05-09T07:12:41.882Z,30.01
2023-05-09T07:15:11.440Z,30.59
2023-05-09T07:17:39.951Z,30.08
2023-05-09T07:20:08.366Z,30.88
2023-05-09T07:22:37.970Z,31.31
2023-05-09T07:25:10.177Z,31.80
2023-05-09T07:27:38.818Z,32.82
2023-05-09T07:30:08.264Z,33.14
2023-05-09T07:32:37.643Z,33.98
2023-05-09T07:35:06.254Z,34.86
2023-05-09T07:37:35.288Z,35.48
2023-05-09T07:40:03.805Z,36.34
2023-05-09T07:42:33.100Z,37.22
2023-05-09T07:45:01.339Z,37.46
2023-05-09T07:47:29.577Z,37.69
2023-05-09T07:49:57.920Z,37.99
2023-05-09T07:52:26.301Z,39.00
2023-05-09T07:54:54.845Z,39.98
2023-05-09T07:57:23.092Z,39.72
2023-05-09T07:59:50.933Z,39.04
2023-05-09T08:02:19.436Z,39.18
2023-05-09T08:04:49.344Z,39.51
2023-05-09T08:07:17.643Z,40.32
2023-05-09T08:09:46.024Z,39.52
2023-05-09T08:12:14.151Z,39.21
2023-05-09T08:14:42.452Z,39.68
2023-05-09T08:17:10.353Z,38.93
2023-05-09T08:19:38.395Z,39.86
2023-05-09T08:22:06.888Z,39.12
2023-05-09T08:24:36.064Z,39.62
2023-05-09T08:27:04.376Z,39.95
2023-05-09T08:29:32.560Z,38.16
2023-05-09T08:32:00.800Z,38.54
2023-05-09T08:34:28.994Z,38.27
2023-05-09T08:36:56.953Z,38.25
2023-05-09T08:39:25.355Z,38.77
2023-05-09T08:41:57.105Z,39.31
2023-05-09T08:44:25.824Z,38.71
2023-05-09T08:46:55.940Z,37.23
2023-05-09T08:49:23.943Z,36.88
2023-05-09T08:51:52.653Z,36.29
2023-05-09T08:54:22.866Z,35.72
2023-05-09T08:56:51.764Z,34.59
2023-05-09T08:59:20.065Z,34.45
2023-05-09T09:01:48.361Z,33.82
2023-05-09T09:04:16.564Z,33.33
2023-05-09T09:06:44.841Z,32.33
2023-05-09T09:09:14.148Z,32.61
2023-05-09T09:11:42.772Z,31.13
2023-05-09T09:14:16.968Z,30.45
2023-05-09T09:16:45.564Z,30.05
2023-05-09T09:19:15.284Z,29.50
2023-05-09T09:21:45.995Z,29.29
2023-05-09T09:24:15.028Z,29.85
2023-05-09T09:26:50.426Z,30.20
2023-05-09T09:29:21.340Z,30.42
2023-05-09T09:31:55.253Z,30.47
2023-05-09T09:34:24.149Z,31.69
2023-05-09T09:36:52.917Z,31.39
2023-05-09T09:39:22.434Z,30.86
2023-05-09T09:41:50.837Z,30.09
2023-05-09T09:44:20.476Z,29.84
2023-05-09T09:46:52.535Z,29.35
2023-05-09T09:49:24.822Z,29.13
2023-05-09T09:51:54.153Z,28.66
2023-05-09T09:54:22.568Z,28.06
2023-05-09T09:56:55.497Z,27.47
2023-05-09T09:59:26.957Z,27.25
2023-05-09T10:02:03.444Z,28.09
2023-05-09T10:04:36.185Z,27.82
2023-05-09T10:07:06.604Z,27.58
2023-05-09T10:09:36.029Z,27.37
2023-05-09T10:12:06.670Z,27.77
2023-05-09T10:14:37.229Z,27.50
2023-05-09T10:17:14.333Z,28.07
2023-05-09T10:19:46.818Z,27.53
2023-05-09T10:22:16.752Z,28.12
2023-05-09T10:25:07.179Z,28.11
2023-05-09T10:27:37.036Z,28.19
2023-05-09T10:30:13.161Z,28.37
2023-05-09T10:32:49.764Z,27.58
2023-05-09T10:35:19.150Z,27.49
2023-05-09T10:37:47.375Z,27.43
2023-05-09T10:40:16.046Z,27.46
2023-05-09T10:42:45.121Z,27.36
2023-05-09T10:45:14.518Z,27.28
2023-05-09T10:47:44.355Z,27.52
2023-05-09T10:50:15.836Z,27.48
2023-05-09T10:53:14.459Z,27.51
2023-05-09T10:55:57.886Z,27.43
2023-05-09T10:58:30.284Z,27.55
2023-05-09T11:01:03.572Z,28.07
2023-05-09T11:03:57.453Z,28.68
2023-05-09T11:06:49.745Z,28.08
2023-05-09T11:09:28.726Z,27.84
2023-05-09T11:11:58.925Z,28.56
2023-05-09T11:14:40.047Z,28.96
2023-05-09T11:17:28.263Z,28.14
2023-05-09T11:20:07.140Z,28.78
2023-05-09T11:22:43.715Z,29.01
2023-05-09T11:25:15.909Z,28.30
2023-05-09T11:27:46.654Z,28.21
2023-05-09T11:30:20.137Z,28.56
2023-05-09T11:32:52.226Z,28.67
2023-05-09T11:35:22.569Z,29.13
2023-05-09T11:38:05.220Z,28.56
2023-05-09T11:40:35.188Z,28.19
2023-05-09T11:43:03.543Z,28.07
2023-05-09T11:45:33.212Z,28.42
2023-05-09T11:48:02.465Z,28.89
2023-05-09T11:50:30.949Z,29.13
2023-05-09T11:53:01.486Z,29.26
2023-05-09T11:55:30.651Z,29.09
2023-05-09T11:57:59.509Z,28.85
2023-05-09T12:00:28.139Z,29.15
2023-05-09T12:02:56.887Z,29.27
2023-05-09T12:05:25.963Z,29.21
2023-05-09T12:07:54.255Z,29.08
2023-05-09T12:10:23.540Z,29.27
2023-05-09T12:12:53.789Z,29.43
2023-05-09T12:15:22.447Z,28.54
2023-05-09T12:18:07.241Z,28.22
2023-05-09T12:20:45.490Z,28.72
2023-05-09T12:23:15.120Z,28.57
2023-05-09T12:25:54.995Z,28.74
2023-05-09T12:28:30.505Z,28.35
2023-05-09T12:30:59.810Z,28.27
2023-05-09T12:33:28.573Z,28.46
2023-05-09T12:36:08.518Z,28.17
2023-05-09T12:38:37.691Z,27.85
2023-05-09T12:41:29.622Z,27.98
2023-05-09T12:43:59.960Z,28.27
2023-05-09T12:46:29.813Z,28.36
2023-05-09T12:48:58.032Z,28.13
2023-05-09T12:51:26.417Z,28.23
2023-05-09T12:54:06.641Z,28.61
2023-05-09T12:56:39.944Z,28.60
2023-05-09T12:59:11.883Z,28.60
2023-05-09T13:01:40.925Z,28.21
2023-05-09T13:04:11.931Z,28.62
2023-05-09T13:06:49.460Z,28.68
2023-05-09T13:09:18.817Z,28.73
2023-05-09T13:11:48.128Z,28.53
2023-05-09T13:14:16.464Z,28.89
2023-05-09T13:16:45.405Z,28.65
2023-05-09T13:19:13.959Z,28.62
2023-05-09T13:21:42.080Z,28.19
2023-05-09T13:24:10.387Z,28.53
2023-05-09T13:26:39.514Z,28.33
2023-05-09T13:29:08.321Z,28.36
2023-05-09T13:31:37.036Z,28.33
2023-05-09T13:34:05.149Z,28.27
2023-05-09T13:36:33.622Z,28.84
2023-05-09T13:39:02.269Z,29.30
2023-05-09T13:41:32.515Z,29.14
2023-05-09T13:44:00.996Z,29.59
2023-05-09T13:46:29.049Z,29.70
2023-05-09T13:48:57.144Z,29.92
2023-05-09T13:51:26.471Z,29.71
2023-05-09T13:53:54.710Z,30.00
2023-05-09T13:56:22.903Z,29.50
2023-05-09T13:58:51.510Z,29.83
2023-05-09T14:01:19.936Z,29.66
2023-05-09T14:03:49.560Z,29.21
2023-05-09T14:06:18.357Z,29.51
2023-05-09T14:08:47.012Z,29.37
2023-05-09T14:11:15.439Z,29.36
2023-05-09T14:13:43.681Z,29.14
2023-05-09T14:16:12.007Z,29.27
2023-05-09T14:18:42.851Z,29.57
2023-05-09T14:21:11.253Z,29.17
2023-05-09T14:23:40.060Z,29.12
2023-05-09T14:26:08.820Z,28.86
2023-05-09T14:28:38.922Z,29.16
2023-05-09T14:31:07.922Z,29.19
2023-05-09T14:33:40.255Z,29.69
2023-05-09T14:36:09.150Z,30.23
2023-05-09T14:38:38.494Z,30.39
2023-05-09T14:41:07.878Z,30.29
2023-05-09T14:43:37.223Z,30.51
2023-05-09T14:46:06.317Z,31.25
2023-05-09T14:48:35.182Z,31.37
2023-05-09T14:51:03.881Z,30.90
2023-05-09T14:53:32.126Z,30.87
2023-05-09T14:56:00.340Z,31.30
2023-05-09T14:58:31.396Z,31.03
2023-05-09T15:01:00.694Z,31.00
2023-05-09T15:03:29.310Z,31.10
2023-05-09T15:06:00.313Z,31.23
2023-05-09T15:08:28.811Z,31.10
2023-05-09T15:10:58.210Z,30.97
2023-05-09T15:13:26.726Z,31.21
2023-05-09T15:15:57.499Z,31.46
2023-05-09T15:18:29.150Z,31.79
2023-05-09T15:20:57.973Z,31.91
2023-05-09T15:23:26.444Z,32.13
2023-05-09T15:25:54.925Z,32.28
2023-05-09T15:28:25.833Z,32.53
2023-05-09T15:30:54.212Z,32.85
2023-05-09T15:33:22.471Z,32.77
2023-05-09T15:35:52.381Z,32.96
2023-05-09T15:38:21.825Z,32.77
2023-05-09T15:40:50.393Z,33.49
2023-05-09T15:43:18.938Z,33.86
2023-05-09T15:45:47.569Z,33.71
2023-05-09T15:48:17.132Z,34.28
2023-05-09T15:50:45.658Z,34.01
2023-05-09T15:53:16.017Z,34.27
2023-05-09T15:55:44.945Z,34.35
2023-05-09T15:58:17.305Z,34.21
2023-05-09T16:00:51.819Z,34.44
2023-05-09T16:03:20.896Z,34.56
2023-05-09T16:05:49.928Z,35.10
2023-05-09T16:08:18.654Z,35.46
2023-05-09T16:10:49.305Z,35.46
2023-05-09T16:13:18.232Z,35.64
2023-05-09T16:15:48.316Z,35.92
2023-05-09T16:18:31.922Z,35.89
2023-05-09T16:21:00.059Z,35.83
2023-05-09T16:23:28.553Z,36.28
2023-05-09T16:25:56.466Z,36.68
2023-05-09T16:28:25.461Z,36.84
2023-05-09T16:30:54.147Z,36.97
2023-05-09T16:33:22.697Z,36.68
2023-05-09T16:35:50.946Z,37.11
2023-05-09T16:38:19.431Z,37.16
2023-05-09T16:40:47.648Z,37.43
2023-05-09T16:43:16.903Z,37.58
2023-05-09T16:45:45.155Z,37.58
2023-05-09T16:48:13.338Z,37.89
2023-05-09T16:50:43.658Z,37.64
2023-05-09T16:53:12.814Z,38.16
2023-05-09T16:55:41.208Z,37.70
2023-05-09T16:58:09.596Z,38.23
2023-05-09T17:00:38.230Z,38.55
2023-05-09T17:03:07.559Z,38.88
2023-05-09T17:05:36.267Z,39.28
2023-05-09T17:08:06.161Z,39.40
2023-05-09T17:10:37.216Z,39.55
2023-05-09T17:13:09.032Z,39.32
2023-05-09T17:15:38.810Z,39.43
2023-05-09T17:18:06.841Z,39.85
2023-05-09T17:20:34.955Z,39.62
2023-05-09T17:23:03.693Z,39.70
2023-05-09T17:25:33.762Z,39.89
2023-05-09T17:28:01.766Z,40.02
2023-05-09T17:30:30.025Z,40.22
2023-05-09T17:32:58.421Z,40.20
2023-05-09T17:35:29.342Z,40.30
2023-05-09T17:37:57.690Z,40.38
2023-05-09T17:40:26.103Z,39.79
2023-05-09T17:42:54.459Z,40.11
2023-05-09T17:45:22.599Z,40.25
2023-05-09T17:47:51.220Z,40.21
2023-05-09T17:50:24.734Z,40.06
2023-05-09T17:52:53.408Z,40.12
2023-05-09T17:55:21.561Z,40.10
2023-05-09T17:57:50.039Z,40.37
2023-05-09T18:00:18.975Z,40.76
2023-05-09T18:02:48.583Z,40.55
2023-05-09T18:05:31.885Z,40.15
2023-05-09T18:08:01.506Z,39.22
2023-05-09T18:10:30.181Z,39.32
2023-05-09T18:12:59.099Z,39.54
2023-05-09T18:15:27.428Z,39.72
2023-05-09T18:17:55.554Z,40.33
2023-05-09T18:20:24.072Z,40.53
2023-05-09T18:22:55.693Z,41.17
2023-05-09T18:25:25.237Z,41.69
2023-05-09T18:27:59.398Z,41.94
2023-05-09T18:30:28.060Z,41.30
2023-05-09T18:33:01.136Z,41.27
2023-05-09T18:35:30.313Z,41.60
2023-05-09T18:37:58.745Z,41.68
2023-05-09T18:40:26.888Z,41.82
2023-05-09T18:42:54.988Z,42.04
2023-05-09T18:45:23.808Z,42.19
2023-05-09T18:47:52.256Z,42.52
2023-05-09T18:50:20.526Z,42.81
2023-05-09T18:52:49.285Z,43.11
2023-05-09T18:55:20.176Z,43.35
2023-05-09T18:57:49.504Z,43.51
2023-05-09T19:00:18.288Z,43.79
2023-05-09T19:02:46.547Z,43.99
2023-05-09T19:05:17.106Z,44.14
2023-05-09T19:07:45.303Z,44.32
2023-05-09T19:10:14.893Z,44.76
2023-05-09T19:12:43.553Z,45.05
2023-05-09T19:15:12.853Z,45.14
2023-05-09T19:17:41.397Z,45.30
2023-05-09T19:20:10.806Z,45.11
2023-05-09T19:22:41.420Z,45.19
2023-05-09T19:25:10.153Z,45.76
2023-05-09T19:27:38.885Z,45.72
2023-05-09T19:30:08.408Z,46.18
2023-05-09T19:32:36.876Z,46.22
2023-05-09T19:35:05.809Z,46.09
2023-05-09T19:37:34.032Z,46.58
2023-05-09T19:40:05.945Z,46.55
2023-05-09T19:42:35.475Z,47.23
2023-05-09T19:45:05.400Z,47.65
2023-05-09T19:47:34.254Z,47.86
2023-05-09T19:50:02.486Z,48.27
2023-05-09T19:52:32.159Z,48.25
2023-05-09T19:55:00.410Z,48.28
2023-05-09T19:57:28.326Z,48.72
2023-05-09T19:59:59.344Z,48.62
2023-05-09T20:02:27.440Z,48.76
2023-05-09T20:04:55.649Z,49.03
2023-05-09T20:07:27.172Z,49.38
2023-05-09T20:09:56.234Z,49.55
2023-05-09T20:12:24.263Z,49.52
2023-05-09T20:14:52.385Z,49.74
2023-05-09T20:17:20.498Z,49.73
2023-05-09T20:19:48.860Z,49.67
2023-05-09T20:22:17.545Z,49.64
2023-05-09T20:24:46.037Z,49.61
2023-05-09T20:27:14.276Z,49.73
2023-05-09T20:29:42.152Z,50.19
2023-05-09T20:32:11.497Z,50.13
2023-05-09T20:34:40.094Z,50.77
2023-05-09T20:37:09.348Z,50.77
2023-05-09T20:39:37.321Z,50.60
2023-05-09T20:42:06.986Z,51.07
2023-05-09T20:44:37.517Z,51.16
2023-05-09T20:47:07.724Z,51.48
2023-05-09T20:49:39.420Z,51.80
2023-05-09T20:52:10.892Z,52.24
2023-05-09T20:54:44.487Z,52.84
2023-05-09T20:57:15.378Z,52.23
2023-05-09T20:59:46.309Z,52.83
2023-05-09T21:02:14.522Z,52.34
2023-05-09T21:04:45.741Z,52.18
2023-05-09T21:07:13.787Z,51.53
2023-05-09T21:09:41.699Z,51.38
2023-05-09T21:12:11.220Z,51.78
2023-05-09T21:14:40.281Z,52.44
2023-05-09T21:17:12.076Z,51.46
2023-05-09T21:19:40.229Z,51.18
2023-05-09T21:22:08.090Z,51.79
2023-05-09T21:24:36.395Z,52.13
2023-05-09T21:27:05.233Z,52.58
2023-05-09T21:29:34.082Z,53.02
2023-05-09T21:32:02.212Z,53.33
2023-05-09T21:34:30.495Z,54.23
2023-05-09T21:36:58.750Z,54.75
2023-05-09T21:39:26.734Z,54.75
2023-05-09T21:41:56.291Z,54.93
2023-05-09T21:44:24.879Z,54.61
2023-05-09T21:46:53.312Z,54.76
2023-05-09T21:49:21.809Z,55.05
2023-05-09T21:51:50.314Z,55.10
2023-05-09T21:54:19.475Z,54.82
2023-05-09T21:56:51.477Z,54.55
2023-05-09T21:59:22.596Z,54.55
2023-05-09T22:01:51.361Z,54.28
2023-05-09T22:04:19.532Z,54.23
2023-05-09T22:06:47.650Z,54.51
2023-05-09T22:09:15.692Z,55.21
2023-05-09T22:11:43.866Z,55.14
2023-05-09T22:14:11.854Z,55.28
2023-05-09T22:16:42.412Z,55.42
2023-05-09T22:19:10.526Z,55.48
2023-05-09T22:21:38.588Z,55.56
2023-05-09T22:24:08.102Z,55.65
2023-05-09T22:26:38.663Z,56.03
2023-05-09T22:29:07.127Z,55.61
2023-05-09T22:31:35.402Z,56.13
2023-05-09T22:34:04.400Z,56.24
2023-05-09T22:36:32.605Z,56.32
2023-05-09T22:39:00.728Z,56.86
2023-05-09T22:41:28.951Z,58.19
2023-05-09T22:43:57.778Z,59.27
2023-05-09T22:46:28.815Z,60.46
2023-05-09T22:48:57.236Z,60.79
2023-05-09T22:51:28.313Z,61.54
2023-05-09T22:53:56.424Z,61.73
2023-05-09T22:56:24.493Z,61.81
2023-05-09T22:58:53.082Z,62.13
2023-05-09T23:01:23.135Z,62.81
2023-05-09T23:03:51.137Z,63.30
2023-05-09T23:06:19.076Z,63.84
2023-05-09T23:08:47.162Z,64.10
2023-05-09T23:11:15.359Z,65.54
2023-05-09T23:13:43.480Z,65.71
2023-05-09T23:16:11.708Z,66.42
2023-05-09T23:18:39.868Z,65.98
2023-05-09T23:21:08.182Z,67.13
2023-05-09T23:23:36.498Z,67.32
2023-05-09T23:26:05.173Z,68.35
2023-05-09T23:28:33.072Z,68.63
2023-05-09T23:31:01.280Z,69.54
2023-05-09T23:33:29.679Z,70.30
2023-05-09T23:35:57.906Z,70.98
2023-05-09T23:38:29.473Z,71.45
2023-05-09T23:40:58.917Z,71.68
2023-05-09T23:43:27.457Z,71.82
2023-05-09T23:45:57.103Z,72.39
2023-05-09T23:48:25.464Z,72.72
2023-05-09T23:50:53.738Z,73.45
2023-05-09T23:53:22.349Z,73.84
2023-05-09T23:55:50.388Z,74.18
2023-05-09T23:58:18.418Z,74.79
